Time;durP1;ratioP1;P1;durP2;ratioP2;P2;SDS_P1;SDS_P2;PMS_P1;PMS_P2;Temp;Humidity;BMP_temperature;BMP_pressure;BME280_temperature;BME280_humidity;BME280_pressure;Samples;Min_cycle;Max_cycle;Signal;HPM_P1;HPM_P2
2023/01/18 00:02:21;;;;;;;109.20;35.67;;;;;;;0.10;100.00;98380.81;5002965;57;1141073;-76
2023/01/18 00:07:26;;;;;;;129.13;38.33;;;;;;;0.08;100.00;98379.61;4973976;57;1140915;-78
2023/01/18 00:12:34;;;;;;;230.50;67.97;;;;;;;0.12;100.00;98385.44;4941785;58;1140996;-76
2023/01/18 00:17:54;;;;;;;131.63;40.97;;;;;;;0.15;100.00;98383.47;4922895;58;1140912;-81
2023/01/18 00:22:57;;;;;;;147.87;44.57;;;;;;;0.16;100.00;98377.77;4701629;59;1140800;-84
2023/01/18 00:28:03;;;;;;;114.97;40.87;;;;;;;0.17;100.00;98390.66;4743345;59;1140966;-75
2023/01/18 00:33:10;;;;;;;101.87;35.33;;;;;;;0.10;100.00;98389.91;4845636;58;1140931;-79
2023/01/18 00:38:16;;;;;;;98.47;35.90;;;;;;;0.06;100.00;98398.38;4876970;58;1141026;-78
2023/01/18 00:43:40;;;;;;;78.77;28.70;;;;;;;0.10;100.00;98412.00;4873085;57;1138885;-83
2023/01/18 00:48:47;;;;;;;65.63;23.87;;;;;;;0.05;100.00;98411.00;5023844;57;1138797;-72
2023/01/18 00:53:53;;;;;;;55.57;22.90;;;;;;;-0.03;100.00;98410.70;5004435;57;1138832;-81
2023/01/18 00:58:59;;;;;;;57.20;21.40;;;;;;;-0.09;100.00;98405.45;5004497;56;1147997;-78
2023/01/18 01:09:30;;;;;;;47.40;20.20;;;;;;;-0.14;100.00;98413.18;4963997;57;1140915;-78
2023/01/18 01:30:51;;;;;;;54.10;20.17;;;;;;;-0.10;100.00;98421.14;4793786;59;1140918;-83
2023/01/18 01:36:02;;;;;;;51.55;19.57;;;;;;;-0.11;100.00;98415.58;4677113;60;1140977;-77
2023/01/18 01:41:13;;;;;;;44.77;20.05;;;;;;;-0.16;100.00;98405.98;4672680;60;1141051;-70
2023/01/18 01:46:46;;;;;;;59.70;25.35;;;;;;;-0.08;100.00;98393.29;4711686;59;1140905;-81
2023/01/18 01:51:59;;;;;;;52.35;23.50;;;;;;;-0.08;100.00;98395.89;4764308;59;1140868;-78
2023/01/18 01:57:13;;;;;;;101.73;38.10;;;;;;;-0.07;100.00;98401.45;4816006;59;1141004;-71
2023/01/18 02:02:20;;;;;;;85.43;30.40;;;;;;;-0.04;100.00;98392.98;4818423;58;1143210;-72
2023/01/18 02:07:28;;;;;;;55.50;24.67;;;;;;;-0.05;100.00;98393.09;4811390;59;1140867;-72
2023/01/18 02:12:36;;;;;;;63.77;25.93;;;;;;;-0.06;100.00;98399.22;4893143;58;1141211;-72
2023/01/18 02:18:01;;;;;;;62.53;23.77;;;;;;;-0.09;100.00;98387.73;4893208;58;1140813;-79
2023/01/18 02:23:44;;;;;;;68.90;25.82;;;;;;;-0.06;100.00;98381.03;4915412;58;1141053;-75
2023/01/18 02:29:08;;;;;;;69.72;28.17;;;;;;;-0.10;100.00;98384.30;4954125;57;1140896;-72
2023/01/18 02:34:48;;;;;;;74.67;30.37;;;;;;;-0.14;100.00;98374.21;4925908;57;1140877;-75
2023/01/18 02:40:10;;;;;;;71.67;29.13;;;;;;;-0.12;100.00;98371.88;4930508;58;1140825;-72
2023/01/18 02:50:55;;;;;;;71.53;28.10;;;;;;;-0.12;100.00;98364.55;4793621;60;1145966;-76
2023/01/18 02:56:38;;;;;;;86.63;35.80;;;;;;;-0.34;100.00;98363.06;4773753;60;1140756;-78
2023/01/18 03:01:54;;;;;;;91.43;35.23;;;;;;;-0.52;100.00;98354.74;4774619;58;1140928;-74
2023/01/18 03:07:07;;;;;;;85.23;34.40;;;;;;;-0.38;100.00;98368.46;4750126;58;1140934;-76
2023/01/18 03:12:47;;;;;;;88.23;35.23;;;;;;;-0.28;100.00;98369.95;4700996;60;1140942;-74
2023/01/18 03:17:57;;;;;;;82.07;35.40;;;;;;;-0.14;100.00;98373.75;4719828;59;1140904;-78
2023/01/18 03:23:38;;;;;;;85.57;34.53;;;;;;;-0.05;100.00;98374.90;4894472;58;1140900;-73
2023/01/18 03:34:27;;;;;;;75.77;32.87;;;;;;;-0.06;100.00;98363.67;4935176;58;1141034;-83
2023/01/18 03:39:41;;;;;;;87.40;34.80;;;;;;;-0.03;100.00;98369.13;4794673;59;1140711;-78
2023/01/18 03:45:06;;;;;;;98.63;40.87;;;;;;;-0.07;100.00;98370.27;4968756;57;1140767;-79
2023/01/18 03:50:12;;;;;;;81.77;33.47;;;;;;;-0.08;100.00;98379.00;5004436;57;1140747;-81
2023/01/18 03:55:33;;;;;;;87.83;33.93;;;;;;;-0.07;100.00;98372.41;4973777;57;1141161;-79
2023/01/18 04:00:40;;;;;;;80.37;31.83;;;;;;;-0.07;100.00;98376.30;5020423;57;1141208;-78
2023/01/18 04:05:46;;;;;;;75.37;31.53;;;;;;;-0.05;100.00;98382.23;5001261;57;1141145;-75
2023/01/18 04:10:53;;;;;;;87.22;32.17;;;;;;;-0.04;100.00;98376.56;4940094;58;1141074;-74
2023/01/18 04:15:58;;;;;;;94.43;35.67;;;;;;;-0.05;100.00;98374.44;4932648;58;1143473;-79
2023/01/18 04:21:04;;;;;;;85.13;31.47;;;;;;;-0.03;100.00;98384.25;4925050;58;1140804;-74
2023/01/18 04:26:12;;;;;;;75.87;29.30;;;;;;;-0.02;100.00;98396.78;4923492;57;1141028;-74
2023/01/18 04:31:18;;;;;;;62.03;23.97;;;;;;;-0.03;100.00;98395.12;4942634;58;1141200;-77
2023/01/18 04:36:24;;;;;;;66.90;27.67;;;;;;;-0.03;100.00;98386.86;4943176;58;1140835;-80
2023/01/18 04:41:30;;;;;;;59.17;23.33;;;;;;;-0.03;100.00;98390.75;4943307;57;1140793;-84
2023/01/18 04:46:39;;;;;;;62.43;24.30;;;;;;;0.02;100.00;98408.61;5011129;57;1140900;-78
2023/01/18 04:51:46;;;;;;;58.13;25.45;;;;;;;0.04;100.00;98392.45;4943931;57;1138742;-75
2023/01/18 04:56:54;;;;;;;57.60;24.65;;;;;;;0.04;100.00;98390.31;4937560;57;1139176;-79
2023/01/18 05:01:59;;;;;;;64.93;25.10;;;;;;;0.04;100.00;98400.70;4930312;57;1138831;-70
2023/01/18 05:07:05;;;;;;;57.13;24.20;;;;;;;0.02;100.00;98394.78;4894656;57;1138839;-79
2023/01/18 05:12:11;;;;;;;59.93;25.30;;;;;;;0.04;100.00;98387.72;4912593;57;1138874;-76
2023/01/18 05:17:17;;;;;;;86.10;31.10;;;;;;;0.06;100.00;98387.98;4992998;57;1138880;-84
2023/01/18 05:22:24;;;;;;;82.47;29.20;;;;;;;0.03;100.00;98390.78;4994259;57;1138785;-75
2023/01/18 05:27:30;;;;;;;67.33;26.63;;;;;;;0.05;100.00;98391.98;5019237;57;1138733;-76
2023/01/18 05:32:36;;;;;;;56.80;23.50;;;;;;;0.06;100.00;98389.28;5024157;57;1138865;-73
2023/01/18 05:37:42;;;;;;;70.23;24.90;;;;;;;0.09;100.00;98385.64;4945592;58;1138680;-70
2023/01/18 05:42:47;;;;;;;70.43;26.20;;;;;;;0.06;100.00;98368.95;4944590;58;1138691;-75
2023/01/18 05:47:55;;;;;;;60.90;23.30;;;;;;;-0.03;100.00;98365.23;4931853;58;1174695;-76
2023/01/18 05:53:02;;;;;;;51.63;19.50;;;;;;;-0.02;100.00;98374.23;4876620;58;1140953;-74
2023/01/18 05:58:07;;;;;;;49.13;20.43;;;;;;;0.03;100.00;98382.16;4835145;58;1140834;-75
2023/01/18 06:03:13;;;;;;;49.05;19.52;;;;;;;0.04;100.00;98382.52;4835702;58;1138824;-70
2023/01/18 06:08:20;;;;;;;61.30;25.37;;;;;;;0.06;100.00;98399.67;4854018;59;1138960;-66
2023/01/18 06:13:29;;;;;;;62.23;24.13;;;;;;;0.13;100.00;98412.62;4842396;59;1138782;-76
2023/01/18 06:18:37;;;;;;;66.73;28.33;;;;;;;0.18;100.00;98415.72;4905460;58;1138751;-75
2023/01/18 06:23:43;;;;;;;68.13;25.00;;;;;;;0.23;100.00;98416.24;4790100;60;1138722;-74
2023/01/18 06:28:48;;;;;;;52.47;22.17;;;;;;;0.27;100.00;98416.87;4795771;59;1138743;-78
2023/01/18 06:33:55;;;;;;;50.12;21.68;;;;;;;0.29;100.00;98408.03;4759439;59;1138867;-74
2023/01/18 06:39:01;;;;;;;52.57;21.10;;;;;;;0.31;100.00;98410.03;4664579;61;1138832;-68
2023/01/18 06:44:08;;;;;;;54.30;20.77;;;;;;;0.33;100.00;98407.33;4664685;60;1138765;-79
2023/01/18 06:49:14;;;;;;;58.57;21.47;;;;;;;0.32;100.00;98401.77;4823635;59;1139018;-72
2023/01/18 06:54:20;;;;;;;50.33;20.40;;;;;;;0.26;100.00;98391.34;4893088;58;1138833;-79
2023/01/18 06:59:27;;;;;;;73.67;24.60;;;;;;;0.32;100.00;98399.16;4891928;58;1138742;-78
2023/01/18 07:04:36;;;;;;;56.17;20.93;;;;;;;0.36;100.00;98408.42;4811392;59;1138739;-74
2023/01/18 07:09:40;;;;;;;39.40;17.27;;;;;;;0.36;100.00;98409.72;4816170;58;1138940;-67
2023/01/18 07:14:46;;;;;;;46.60;18.60;;;;;;;0.34;100.00;98411.12;4774966;58;1138912;-79
2023/01/18 07:19:55;;;;;;;37.33;17.37;;;;;;;0.38;100.00;98410.45;4746252;59;1138878;-75
2023/01/18 07:25:01;;;;;;;52.78;18.76;;;;;;;0.43;100.00;98415.34;4719700;60;1138735;-71
2023/01/18 07:30:11;;;;;;;40.45;18.32;;;;;;;0.46;100.00;98428.12;4745712;59;1138662;-74
2023/01/18 07:35:18;;;;;;;50.15;17.12;;;;;;;0.43;100.00;98426.56;4760001;60;1138852;-76
2023/01/18 07:40:25;;;;;;;50.23;20.53;;;;;;;0.41;100.00;98418.51;4761494;59;1138772;-76
2023/01/18 07:45:32;;;;;;;41.27;17.30;;;;;;;0.42;100.00;98420.17;4756964;59;1138821;-70
2023/01/18 07:50:38;;;;;;;38.97;17.90;;;;;;;0.45;100.00;98414.30;4842624;58;1138993;-67
2023/01/18 07:55:43;;;;;;;41.20;18.57;;;;;;;0.52;100.00;98418.58;4775013;60;1138753;-75
2023/01/18 08:00:49;;;;;;;49.73;23.17;;;;;;;0.54;100.00;98416.70;4698501;60;1138919;-77
2023/01/18 08:05:57;;;;;;;58.07;24.73;;;;;;;0.59;100.00;98415.45;4698891;60;1138873;-72
2023/01/18 08:11:06;;;;;;;100.00;36.90;;;;;;;0.68;100.00;98419.16;4706906;60;1138912;-74
2023/01/18 08:16:13;;;;;;;76.20;33.77;;;;;;;0.73;100.00;98416.25;4717700;60;1141044;-74
2023/01/18 08:21:19;;;;;;;80.93;34.27;;;;;;;0.75;100.00;98411.77;4752901;60;1138817;-72
2023/01/18 08:26:25;;;;;;;82.60;37.53;;;;;;;0.82;100.00;98410.38;4766628;59;1138968;-78
2023/01/18 08:31:31;;;;;;;69.53;29.75;;;;;;;0.87;100.00;98410.88;4856529;58;1138754;-67
2023/01/18 08:36:37;;;;;;;65.77;31.87;;;;;;;0.90;100.00;98411.97;4850855;58;1138716;-70
2023/01/18 08:41:45;;;;;;;69.30;30.13;;;;;;;0.95;100.00;98415.05;4850240;58;1139032;-65
2023/01/18 08:46:50;;;;;;;79.23;33.43;;;;;;;0.99;100.00;98426.45;4869587;59;1138830;-84
2023/01/18 08:51:56;;;;;;;86.20;37.87;;;;;;;1.05;100.00;98439.03;5017457;57;1138858;-77
2023/01/18 08:57:02;;;;;;;87.90;39.57;;;;;;;1.02;100.00;98428.00;5055762;57;1138836;-67
2023/01/18 09:02:11;;;;;;;197.13;64.57;;;;;;;0.95;100.00;98422.39;5022936;57;1138999;-73
2023/01/18 09:07:17;;;;;;;249.67;70.07;;;;;;;0.97;100.00;98426.19;4968611;57;1140796;-70
2023/01/18 09:12:23;;;;;;;102.47;40.67;;;;;;;0.97;100.00;98427.48;4932793;57;1140789;-71
2023/01/18 09:17:29;;;;;;;96.53;38.03;;;;;;;0.97;100.00;98427.02;5003874;57;1140790;-73
2023/01/18 09:22:36;;;;;;;105.80;48.87;;;;;;;1.03;100.00;98431.80;4952326;57;1138806;-72
2023/01/18 09:27:42;;;;;;;96.13;36.03;;;;;;;1.05;100.00;98433.83;4926337;58;1140910;-74
2023/01/18 09:32:47;;;;;;;94.40;33.70;;;;;;;1.06;100.00;98435.95;4925069;57;1138728;-79
2023/01/18 09:37:54;;;;;;;112.43;38.20;;;;;;;1.11;100.00;98435.13;4951906;57;1138776;-75
2023/01/18 09:43:00;;;;;;;119.10;42.87;;;;;;;1.12;100.00;98437.27;4934479;56;1140712;-83
2023/01/18 09:48:10;;;;;;;105.15;46.65;;;;;;;1.11;100.00;98440.34;5003740;57;1140904;-80
2023/01/18 09:53:35;;;;;;;118.45;47.17;;;;;;;1.12;100.00;98443.30;4996197;57;1140844;-79
2023/01/18 09:58:54;;;;;;;107.13;51.00;;;;;;;1.17;100.00;98439.91;4866236;59;1140923;-75
2023/01/18 10:04:20;;;;;;;92.47;38.00;;;;;;;1.21;100.00;98437.92;4831234;59;1226908;-75
2023/01/18 10:09:33;;;;;;;84.03;36.37;;;;;;;1.21;100.00;98436.63;4793146;59;1138796;-68
2023/01/18 10:14:55;;;;;;;90.45;36.60;;;;;;;1.20;100.00;98431.05;4796373;58;1138895;-69
2023/01/18 10:20:04;;;;;;;64.47;29.67;;;;;;;1.22;100.00;98429.17;4775324;60;1174743;-73
2023/01/18 10:25:32;;;;;;;57.70;25.37;;;;;;;1.17;100.00;98424.77;4775801;60;1138866;-72
2023/01/18 10:30:48;;;;;;;73.40;30.15;;;;;;;1.12;100.00;98425.55;4775561;60;1138684;-76
2023/01/18 10:35:58;;;;;;;76.20;31.97;;;;;;;1.13;100.00;98433.25;4899611;57;1138947;-70
2023/01/18 10:41:04;;;;;;;70.03;32.13;;;;;;;1.17;100.00;98437.78;5002822;57;1139011;-73
2023/01/18 10:46:13;;;;;;;54.58;25.27;;;;;;;1.23;100.00;98454.23;5002890;57;1139173;-79
2023/01/18 10:51:37;;;;;;;55.43;26.90;;;;;;;1.21;100.00;98450.47;5011414;57;1138722;-73
2023/01/18 10:56:44;;;;;;;65.00;28.30;;;;;;;1.17;100.00;98450.33;4969774;57;1138797;-68
2023/01/18 11:01:57;;;;;;;79.67;32.63;;;;;;;1.18;100.00;98451.98;5002640;57;1138673;-77
2023/01/18 11:07:04;;;;;;;167.57;60.10;;;;;;;1.23;100.00;98451.63;5000729;57;1138762;-66
2023/01/18 11:12:46;;;;;;;180.67;63.00;;;;;;;1.21;100.00;98440.05;4922078;58;1141028;-76
2023/01/18 11:17:59;;;;;;;99.77;45.33;;;;;;;1.20;100.00;98441.47;4955357;57;1140906;-77
2023/01/18 11:23:13;;;;;;;79.80;42.20;;;;;;;1.22;100.00;98436.48;4922344;58;1138762;-72
2023/01/18 11:28:40;;;;;;;84.07;39.48;;;;;;;1.25;100.00;98445.84;4944953;58;1208258;-75
2023/01/18 11:33:59;;;;;;;86.85;38.80;;;;;;;1.30;100.00;98444.58;4942488;57;1138662;-76
2023/01/18 11:39:27;;;;;;;89.28;37.08;;;;;;;1.34;100.00;98451.23;4942910;58;1139530;-80
2023/01/18 11:44:35;;;;;;;107.07;44.63;;;;;;;1.38;100.00;98456.56;4965553;57;1138675;-77
2023/01/18 11:49:51;;;;;;;101.97;43.57;;;;;;;1.37;100.00;98461.44;5022869;57;1141031;-85
2023/01/18 11:55:01;;;;;;;102.33;43.50;;;;;;;1.38;100.00;98455.25;4932948;57;1141030;-71
2023/01/18 12:00:13;;;;;;;76.65;36.85;;;;;;;1.40;100.00;98452.07;4995468;57;1140767;-76
2023/01/18 12:05:38;;;;;;;76.20;34.63;;;;;;;1.45;100.00;98463.47;4997765;57;1138933;-76
2023/01/18 12:10:57;;;;;;;73.20;35.47;;;;;;;1.45;100.00;98457.42;5031193;57;1138939;-74
2023/01/18 12:16:22;;;;;;;93.37;41.40;;;;;;;1.45;100.00;98460.03;4923182;58;1138790;-75
2023/01/18 12:21:57;;;;;;;94.37;39.73;;;;;;;1.47;100.00;98458.98;4942167;58;1138662;-74
2023/01/18 12:27:23;;;;;;;79.47;34.92;;;;;;;1.44;100.00;98471.39;4940801;58;1138915;-76
2023/01/18 12:33:22;;;;;;;83.40;34.47;;;;;;;1.44;100.00;98467.02;4967714;57;1138953;-74
2023/01/18 12:38:33;;;;;;;69.80;31.83;;;;;;;1.50;100.00;98467.88;4992790;57;1138712;-70
2023/01/18 12:44:21;;;;;;;79.20;36.87;;;;;;;1.57;100.00;98476.05;4914922;58;1138917;-87
2023/01/18 12:49:30;;;;;;;69.47;33.60;;;;;;;1.51;100.00;98473.45;4910784;58;1138916;-74
2023/01/18 12:54:41;;;;;;;77.20;35.53;;;;;;;1.53;100.00;98487.16;5023949;57;1138740;-75
2023/01/18 13:00:05;;;;;;;115.77;45.60;;;;;;;1.59;100.00;98491.94;4966496;57;1138755;-73
2023/01/18 13:05:34;;;;;;;73.50;33.40;;;;;;;1.61;100.00;98491.36;4865453;58;1140703;-70
2023/01/18 13:10:41;;;;;;;97.70;41.50;;;;;;;1.58;100.00;98495.48;4892390;57;1138671;-75
2023/01/18 13:16:18;;;;;;;95.23;45.00;;;;;;;1.53;100.00;98496.28;4853227;58;1138877;-76
2023/01/18 13:21:50;;;;;;;92.93;42.73;;;;;;;1.57;100.00;98498.20;4890124;58;1138923;-75
2023/01/18 13:27:12;;;;;;;67.40;31.33;;;;;;;1.57;100.00;98498.20;4910620;57;1162530;-74
2023/01/18 13:32:36;;;;;;;57.93;27.30;;;;;;;1.60;100.00;98509.23;4900549;57;1138803;-69
2023/01/18 13:37:50;;;;;;;63.33;28.17;;;;;;;1.61;100.00;98510.06;4929100;58;1138835;-74
2023/01/18 13:42:55;;;;;;;74.27;39.60;;;;;;;1.59;100.00;98506.27;4946425;57;1138760;-70
2023/01/18 13:48:08;;;;;;;62.83;31.10;;;;;;;1.60;100.00;98511.84;5004485;57;1138842;-83
2023/01/18 13:53:18;;;;;;;63.83;30.00;;;;;;;1.62;100.00;98519.08;4955181;57;1138799;-79
2023/01/18 13:58:33;;;;;;;70.07;31.97;;;;;;;1.71;100.00;98527.52;4942449;57;1138810;-73
2023/01/18 14:03:43;;;;;;;69.67;32.73;;;;;;;1.80;100.00;98540.36;4931585;57;1140402;-73
2023/01/18 14:08:54;;;;;;;65.50;31.23;;;;;;;1.82;100.00;98544.16;4996873;57;1227248;-74
2023/01/18 14:14:07;;;;;;;76.07;38.00;;;;;;;1.76;100.00;98542.82;5024370;57;1138890;-73
2023/01/18 14:19:17;;;;;;;;;;;;;;;1.75;100.00;98548.50;4988582;57;1139081;-75
2023/01/18 14:25:18;;;;;;;64.17;32.70;;;;;;;1.74;100.00;98557.27;4943256;57;972123;-69
2023/01/18 14:30:34;;;;;;;64.92;30.48;;;;;;;1.70;100.00;98570.62;4918801;57;1136908;-75
2023/01/18 14:35:51;;;;;;;58.53;29.37;;;;;;;1.59;100.00;98577.08;4951814;57;1138870;-75
2023/01/18 14:41:03;;;;;;;53.20;24.63;;;;;;;1.55;100.00;98578.23;4923911;58;1138706;-76
2023/01/18 14:46:23;;;;;;;50.95;24.12;;;;;;;1.47;100.00;98584.01;4926825;57;1138937;-79
2023/01/18 14:51:30;;;;;;;67.32;28.32;;;;;;;1.43;100.00;98590.84;4923313;57;1253654;-73
2023/01/18 14:56:42;;;;;;;366.93;97.03;;;;;;;1.40;100.00;98599.70;5006959;58;1138756;-81
2023/01/18 15:02:01;;;;;;;878.83;266.20;;;;;;;1.40;100.00;98608.81;4983404;58;1140700;-69
2023/01/18 15:07:09;;;;;;;1428.47;513.27;;;;;;;1.45;100.00;98613.70;4950274;58;1143061;-82
2023/01/18 15:12:23;;;;;;;896.77;362.73;;;;;;;1.48;100.00;98617.41;4903812;58;1145517;-76
2023/01/18 15:17:28;;;;;;;;;;;;;;;1.44;100.00;98631.58;4939482;57;1143534;-81
2023/01/18 15:22:37;;;;;;;235.87;98.27;;;;;;;1.37;100.00;98646.81;4852419;59;972206;-79
2023/01/18 15:27:50;;;;;;;142.13;67.40;;;;;;;1.36;100.00;98657.70;4811757;59;1138809;-79
2023/01/18 15:33:00;;;;;;;76.73;38.00;;;;;;;1.38;100.00;98664.08;4721932;61;1141025;-69
2023/01/18 15:38:06;;;;;;;67.13;30.23;;;;;;;1.41;100.00;98668.61;4742022;60;1138887;-81
2023/01/18 15:43:22;;;;;;;64.20;30.23;;;;;;;1.46;100.00;98681.33;4884018;59;1139035;-76
2023/01/18 15:48:33;;;;;;;51.92;24.12;;;;;;;1.47;100.00;98690.80;4804881;59;1139037;-69
2023/01/18 15:53:54;;;;;;;52.75;27.02;;;;;;;1.44;100.00;98701.91;4757222;59;1138977;-79
2023/01/18 15:59:01;;;;;;;75.37;37.23;;;;;;;1.38;100.00;98703.15;4800561;59;1138982;-79
2023/01/18 16:04:22;;;;;;;85.07;41.87;;;;;;;1.40;100.00;98700.80;4787694;60;1139087;-82
2023/01/18 16:09:29;;;;;;;92.88;45.63;;;;;;;1.41;100.00;98715.50;4820700;59;1138722;-73
2023/01/18 16:14:39;;;;;;;79.53;38.70;;;;;;;1.41;100.00;98718.56;4947170;58;1138866;-76
2023/01/18 16:19:53;;;;;;;84.03;36.17;;;;;;;1.38;100.00;98722.21;4946997;57;1138871;-71
2023/01/18 16:25:19;;;;;;;76.77;34.00;;;;;;;1.40;100.00;98737.27;4965910;57;1139097;-75
2023/01/18 16:30:37;;;;;;;120.10;47.40;;;;;;;1.33;100.00;98740.41;4941385;57;1139136;-75
2023/01/18 16:35:44;;;;;;;97.97;39.55;;;;;;;1.25;100.00;98755.70;4917135;58;1141028;-78
2023/01/18 16:40:51;;;;;;;55.52;23.83;;;;;;;1.21;100.00;98757.71;4946346;58;1138985;-85
2023/01/18 16:46:02;;;;;;;49.17;23.57;;;;;;;1.18;100.00;98751.87;4936306;57;1138893;-76
2023/01/18 16:51:16;;;;;;;57.73;26.07;;;;;;;1.17;100.00;98760.61;4936273;57;1138754;-72
2023/01/18 16:56:22;;;;;;;102.60;48.40;;;;;;;1.14;100.00;98768.63;4870626;58;1138990;-71
2023/01/18 17:01:30;;;;;;;753.50;341.70;;;;;;;1.20;100.00;98767.76;4923172;58;1140867;-69
2023/01/18 17:06:35;;;;;;;171.18;72.85;;;;;;;1.25;100.00;98773.94;4908239;58;1152729;-72
2023/01/18 17:11:41;;;;;;;175.70;76.37;;;;;;;1.31;100.00;98781.34;4893628;58;1141127;-69
2023/01/18 17:16:48;;;;;;;147.43;64.37;;;;;;;1.36;100.00;98796.20;4929791;58;1140978;-69
2023/01/18 17:21:55;;;;;;;469.97;135.50;;;;;;;1.38;100.00;98797.74;4852293;58;1141065;-70
2023/01/18 17:27:02;;;;;;;204.37;93.30;;;;;;;1.25;100.00;98809.92;4833964;59;1143014;-72
2023/01/18 17:32:11;;;;;;;137.73;53.50;;;;;;;1.08;100.00;98823.22;4915053;58;1140858;-73
2023/01/18 17:37:17;;;;;;;153.30;62.00;;;;;;;0.99;100.00;98832.48;4932858;58;1141061;-70
2023/01/18 17:42:23;;;;;;;128.80;50.08;;;;;;;1.03;100.00;98828.75;4912777;58;1140821;-71
2023/01/18 17:47:34;;;;;;;105.27;44.30;;;;;;;1.14;100.00;98844.96;4920644;57;1140887;-72
2023/01/18 17:52:41;;;;;;;62.93;29.47;;;;;;;1.11;100.00;98853.44;4925974;58;1142251;-70
2023/01/18 17:57:47;;;;;;;70.75;31.12;;;;;;;1.04;100.00;98856.45;4907929;57;1138758;-75
2023/01/18 18:02:56;;;;;;;68.20;30.50;;;;;;;1.09;100.00;98856.60;4896160;56;1138850;-73
2023/01/18 18:08:01;;;;;;;72.13;28.67;;;;;;;1.07;100.00;98864.51;4940965;58;1138937;-72
2023/01/18 18:13:07;;;;;;;61.77;28.03;;;;;;;1.12;100.00;98857.24;4933419;58;1138987;-70
2023/01/18 18:18:13;;;;;;;76.37;30.10;;;;;;;1.17;100.00;98862.16;4890251;58;1139223;-72
2023/01/18 18:23:21;;;;;;;60.70;28.40;;;;;;;1.10;100.00;98871.29;4892596;58;1138733;-73
2023/01/18 18:28:28;;;;;;;64.53;30.80;;;;;;;0.99;100.00;98890.22;4896419;56;1138775;-74
2023/01/18 18:33:34;;;;;;;80.43;30.07;;;;;;;0.88;100.00;98904.39;4913554;58;1138821;-70
2023/01/18 18:38:40;;;;;;;187.95;56.55;;;;;;;0.83;100.00;98918.98;4933376;58;1139071;-71
2023/01/18 18:43:46;;;;;;;77.20;30.67;;;;;;;0.79;100.00;98940.09;4882621;58;1141121;-69
2023/01/18 18:48:53;;;;;;;93.50;34.17;;;;;;;0.73;100.00;98947.83;4890147;58;1138937;-71
2023/01/18 18:53:59;;;;;;;91.60;34.20;;;;;;;0.68;100.00;98950.71;4989193;57;1138841;-71
2023/01/18 18:59:05;;;;;;;92.08;33.18;;;;;;;0.70;100.00;98965.77;4864126;58;1138727;-68
2023/01/18 19:04:11;;;;;;;97.25;34.73;;;;;;;0.75;100.00;98975.89;4968889;57;1138876;-70
2023/01/18 19:09:17;;;;;;;223.13;59.57;;;;;;;0.77;100.00;98984.41;5028796;57;1139044;-69
2023/01/18 19:14:29;;;;;;;289.57;79.53;;;;;;;0.80;100.00;98993.80;4970408;57;1141134;-71
2023/01/18 19:19:31;;;;;;;211.57;66.97;;;;;;;0.88;100.00;98992.88;4986334;57;1140861;-73
2023/01/18 19:24:37;;;;;;;156.72;62.80;;;;;;;1.02;100.00;99001.50;4945117;57;1140994;-71
2023/01/18 19:29:44;;;;;;;194.50;69.45;;;;;;;1.07;100.00;99013.39;4941715;57;1140865;-67
2023/01/18 19:34:49;;;;;;;184.30;73.00;;;;;;;1.13;100.00;99019.03;4749372;59;1140881;-72
2023/01/18 19:39:55;;;;;;;166.90;61.80;;;;;;;1.22;100.00;99025.45;4850298;57;1140952;-73
2023/01/18 19:45:01;;;;;;;138.17;50.10;;;;;;;1.25;100.00;99024.77;4741469;60;1141045;-68
2023/01/18 19:50:07;;;;;;;146.50;49.93;;;;;;;1.27;100.00;99028.11;4807913;59;1140981;-73
2023/01/18 19:55:14;;;;;;;139.45;54.45;;;;;;;1.32;100.00;99035.17;4739357;58;1140979;-72
2023/01/18 20:00:21;;;;;;;92.10;34.97;;;;;;;1.34;100.00;99040.30;4845799;59;1140992;-69
2023/01/18 20:05:27;;;;;;;69.27;31.48;;;;;;;1.23;100.00;99049.23;4804863;59;1138776;-69
2023/01/18 20:10:33;;;;;;;71.63;30.00;;;;;;;1.12;100.00;99042.09;4842496;59;1138818;-71
2023/01/18 20:15:44;;;;;;;65.97;29.93;;;;;;;1.09;100.00;99037.08;4920027;58;1138944;-71
2023/01/18 20:20:50;;;;;;;79.60;29.48;;;;;;;1.02;100.00;99053.56;4941929;57;1138819;-75
2023/01/18 20:25:56;;;;;;;89.30;38.43;;;;;;;0.93;100.00;99071.02;4942139;57;1138906;-73
2023/01/18 20:31:08;;;;;;;125.77;53.67;;;;;;;0.92;100.00;99071.12;4972995;57;1138678;-71
2023/01/18 20:36:14;;;;;;;112.13;49.50;;;;;;;0.92;100.00;99072.42;4933829;57;1140867;-72
2023/01/18 20:41:20;;;;;;;93.22;40.33;;;;;;;0.89;100.00;99072.63;4932522;57;1140843;-71
2023/01/18 20:46:26;;;;;;;85.23;37.67;;;;;;;0.91;100.00;99091.13;5015508;57;1139015;-74
2023/01/18 20:51:33;;;;;;;73.33;32.93;;;;;;;0.87;100.00;99097.45;4954374;57;1138736;-70
2023/01/18 20:56:39;;;;;;;72.90;32.97;;;;;;;0.88;100.00;99106.09;4943726;57;1138872;-71
2023/01/18 21:01:48;;;;;;;68.65;33.18;;;;;;;0.89;100.00;99112.52;4953401;57;1138937;-70
2023/01/18 21:06:56;;;;;;;84.32;35.63;;;;;;;0.93;100.00;99122.25;4939273;57;1138984;-71
2023/01/18 21:12:02;;;;;;;73.87;32.43;;;;;;;0.90;100.00;99131.11;4935698;57;1138756;-70
2023/01/18 21:17:08;;;;;;;94.10;39.83;;;;;;;0.88;100.00;99145.13;4801335;58;1138898;-73
2023/01/18 21:22:17;;;;;;;118.57;53.63;;;;;;;0.89;100.00;99155.92;4825593;59;1138868;-73
2023/01/18 21:27:25;;;;;;;99.20;47.30;;;;;;;0.95;100.00;99171.98;4850427;58;1140838;-68
2023/01/18 21:32:31;;;;;;;112.33;49.57;;;;;;;0.93;100.00;99183.41;4825475;59;1138807;-71
2023/01/18 21:37:38;;;;;;;80.13;39.10;;;;;;;0.90;100.00;99183.16;4943339;57;1161289;-70
2023/01/18 21:48:08;;;;;;;90.83;43.63;;;;;;;0.96;100.00;99184.08;4940884;57;1138678;-68
2023/01/18 21:58:54;;;;;;;107.07;50.53;;;;;;;1.10;100.00;99199.33;4812212;59;1140836;-70
2023/01/18 22:09:29;;;;;;;93.27;47.97;;;;;;;1.18;100.00;99217.95;4820492;59;1141104;-72
2023/01/18 22:14:36;;;;;;;118.10;57.53;;;;;;;1.22;100.00;99224.66;4906626;58;1138901;-70
2023/01/18 22:19:42;;;;;;;91.23;42.93;;;;;;;1.20;100.00;99223.91;4982051;57;1150432;-72
2023/01/18 22:24:48;;;;;;;93.05;40.78;;;;;;;1.12;100.00;99221.75;5015862;57;1138908;-71
2023/01/18 22:29:54;;;;;;;110.43;47.57;;;;;;;1.12;100.00;99230.86;4976926;57;1138911;-70
2023/01/18 22:35:00;;;;;;;83.20;35.70;;;;;;;1.04;100.00;99227.89;4954031;58;1140869;-71
2023/01/18 22:40:07;;;;;;;69.55;31.48;;;;;;;0.90;100.00;99228.70;4934684;58;1138772;-68
2023/01/18 22:45:13;;;;;;;68.97;32.47;;;;;;;0.82;100.00;99240.48;4976721;57;1138892;-74
2023/01/18 22:50:20;;;;;;;60.03;29.83;;;;;;;0.72;100.00;99241.48;5015801;57;1138927;-71
2023/01/18 22:55:26;;;;;;;64.47;30.23;;;;;;;0.70;100.00;99244.17;5017787;57;1138739;-70
2023/01/18 23:00:31;;;;;;;67.87;30.73;;;;;;;0.70;100.00;99246.77;4832736;59;1138733;-68
2023/01/18 23:05:38;;;;;;;73.45;31.57;;;;;;;0.73;100.00;99251.43;4929890;57;1139079;-73
2023/01/18 23:10:43;;;;;;;73.67;31.77;;;;;;;0.76;100.00;99263.81;4939934;57;1138848;-71
2023/01/18 23:21:12;;;;;;;;;;;;;;;0.97;100.00;99247.39;4978801;57;1138966;-72
2023/01/18 23:26:17;;;;;;;78.90;36.50;;;;;;;1.09;100.00;99259.68;5023437;57;971957;-75
2023/01/18 23:31:24;;;;;;;80.20;35.27;;;;;;;1.14;100.00;99277.18;4976111;57;1136618;-71
2023/01/18 23:36:30;;;;;;;74.73;33.13;;;;;;;1.16;100.00;99288.34;4943069;57;1138724;-75
2023/01/18 23:57:45;;;;;;;74.90;32.08;;;;;;;0.94;100.00;99318.68;4951870;57;1138778;-75
